sensor_id;sensor_type;location;lat;lon;timestamp;P1;durP1;ratioP1;P2;durP2;ratioP2
22184;SDS011;11258;52.516;13.318;2024-02-21T00:01:21;8.53;;;4.40;;
22184;SDS011;11258;52.516;13.318;2024-02-21T00:03:47;10.70;;;3.60;;
22184;SDS011;11258;52.516;13.318;2024-02-21T00:06:13;13.43;;;4.23;;
22184;SDS011;11258;52.516;13.318;2024-02-21T00:08:39;12.50;;;5.43;;
22184;SDS011;11258;52.516;13.318;2024-02-21T00:11:05;16.10;;;4.17;;
22184;SDS011;11258;52.516;13.318;2024-02-21T00:13:31;11.23;;;3.77;;
22184;SDS011;11258;52.516;13.318;2024-02-21T00:15:57;16.37;;;4.77;;
22184;SDS011;11258;52.516;13.318;2024-02-21T00:18:23;14.10;;;4.23;;
22184;SDS011;11258;52.516;13.318;2024-02-21T00:20:49;11.57;;;4.17;;
22184;SDS011;11258;52.516;13.318;2024-02-21T00:23:15;14.33;;;4.03;;
22184;SDS011;11258;52.516;13.318;2024-02-21T00:25:41;14.90;;;3.40;;
22184;SDS011;11258;52.516;13.318;2024-02-21T00:28:07;9.50;;;4.30;;
22184;SDS011;11258;52.516;13.318;2024-02-21T00:30:33;15.37;;;3.97;;
22184;SDS011;11258;52.516;13.318;2024-02-21T00:32:59;16.03;;;4.50;;
22184;SDS011;11258;52.516;13.318;2024-02-21T00:35:25;19.80;;;5.27;;
22184;SDS011;11258;52.516;13.318;2024-02-21T00:37:51;11.80;;;5.07;;
22184;SDS011;11258;52.516;13.318;2024-02-21T00:40:17;10.43;;;3.33;;
22184;SDS011;11258;52.516;13.318;2024-02-21T00:42:45;12.23;;;4.10;;
22184;SDS011;11258;52.516;13.318;2024-02-21T00:45:11;14.87;;;3.73;;
22184;SDS011;11258;52.516;13.318;2024-02-21T00:47:37;11.63;;;3.73;;
22184;SDS011;11258;52.516;13.318;2024-02-21T00:50:03;18.50;;;4.27;;
22184;SDS011;11258;52.516;13.318;2024-02-21T00:52:29;14.53;;;3.80;;
22184;SDS011;11258;52.516;13.318;2024-02-21T00:54:55;7.97;;;3.70;;
22184;SDS011;11258;52.516;13.318;2024-02-21T00:57:21;9.80;;;3.13;;
22184;SDS011;11258;52.516;13.318;2024-02-21T00:59:48;15.93;;;3.97;;
22184;SDS011;11258;52.516;13.318;2024-02-21T01:02:15;6.17;;;3.53;;
22184;SDS011;11258;52.516;13.318;2024-02-21T01:04:41;11.77;;;3.30;;
22184;SDS011;11258;52.516;13.318;2024-02-21T01:07:07;9.20;;;3.27;;
22184;SDS011;11258;52.516;13.318;2024-02-21T01:09:33;9.60;;;3.50;;
22184;SDS011;11258;52.516;13.318;2024-02-21T01:11:59;9.27;;;3.67;;
22184;SDS011;11258;52.516;13.318;2024-02-21T01:14:25;24.57;;;3.90;;
22184;SDS011;11258;52.516;13.318;2024-02-21T01:16:51;10.13;;;3.67;;
22184;SDS011;11258;52.516;13.318;2024-02-21T01:19:17;15.80;;;3.90;;
22184;SDS011;11258;52.516;13.318;2024-02-21T01:21:43;10.27;;;3.50;;
22184;SDS011;11258;52.516;13.318;2024-02-21T01:24:09;12.47;;;3.57;;
22184;SDS011;11258;52.516;13.318;2024-02-21T01:26:35;9.60;;;3.50;;
22184;SDS011;11258;52.516;13.318;2024-02-21T01:29:01;11.90;;;3.43;;
22184;SDS011;11258;52.516;13.318;2024-02-21T01:31:27;9.03;;;3.13;;
22184;SDS011;11258;52.516;13.318;2024-02-21T01:33:53;13.47;;;3.97;;
22184;SDS011;11258;52.516;13.318;2024-02-21T01:36:19;9.17;;;3.60;;
22184;SDS011;11258;52.516;13.318;2024-02-21T01:38:44;13.17;;;3.73;;
22184;SDS011;11258;52.516;13.318;2024-02-21T01:41:10;13.83;;;3.90;;
22184;SDS011;11258;52.516;13.318;2024-02-21T01:43:36;13.53;;;3.00;;
22184;SDS011;11258;52.516;13.318;2024-02-21T01:46:02;9.67;;;3.07;;
22184;SDS011;11258;52.516;13.318;2024-02-21T01:48:29;10.93;;;3.80;;
22184;SDS011;11258;52.516;13.318;2024-02-21T01:50:55;14.07;;;3.80;;
22184;SDS011;11258;52.516;13.318;2024-02-21T01:53:27;11.70;;;3.47;;
22184;SDS011;11258;52.516;13.318;2024-02-21T01:55:55;9.87;;;3.20;;
22184;SDS011;11258;52.516;13.318;2024-02-21T01:58:21;11.27;;;3.60;;
22184;SDS011;11258;52.516;13.318;2024-02-21T02:00:47;10.57;;;3.10;;
22184;SDS011;11258;52.516;13.318;2024-02-21T02:03:13;8.50;;;2.67;;
22184;SDS011;11258;52.516;13.318;2024-02-21T02:05:46;8.70;;;2.73;;
22184;SDS011;11258;52.516;13.318;2024-02-21T02:08:15;10.47;;;3.33;;
22184;SDS011;11258;52.516;13.318;2024-02-21T02:10:42;10.00;;;3.47;;
22184;SDS011;11258;52.516;13.318;2024-02-21T02:13:08;9.53;;;3.77;;
22184;SDS011;11258;52.516;13.318;2024-02-21T02:15:44;8.03;;;2.93;;
22184;SDS011;11258;52.516;13.318;2024-02-21T02:18:11;14.20;;;4.57;;
22184;SDS011;11258;52.516;13.318;2024-02-21T02:20:38;8.47;;;3.13;;
22184;SDS011;11258;52.516;13.318;2024-02-21T02:23:07;8.57;;;2.80;;
22184;SDS011;11258;52.516;13.318;2024-02-21T02:25:34;9.33;;;3.17;;
22184;SDS011;11258;52.516;13.318;2024-02-21T02:28:00;11.13;;;3.40;;
22184;SDS011;11258;52.516;13.318;2024-02-21T02:30:26;10.23;;;3.03;;
22184;SDS011;11258;52.516;13.318;2024-02-21T02:32:52;8.43;;;3.87;;
22184;SDS011;11258;52.516;13.318;2024-02-21T02:35:18;9.87;;;3.27;;
22184;SDS011;11258;52.516;13.318;2024-02-21T02:37:47;7.97;;;3.90;;
22184;SDS011;11258;52.516;13.318;2024-02-21T02:40:14;14.23;;;3.93;;
22184;SDS011;11258;52.516;13.318;2024-02-21T02:42:40;16.17;;;3.80;;
22184;SDS011;11258;52.516;13.318;2024-02-21T02:45:06;8.23;;;2.80;;
22184;SDS011;11258;52.516;13.318;2024-02-21T02:47:32;10.37;;;3.47;;
22184;SDS011;11258;52.516;13.318;2024-02-21T02:49:59;14.57;;;3.77;;
22184;SDS011;11258;52.516;13.318;2024-02-21T02:52:25;9.43;;;3.80;;
22184;SDS011;11258;52.516;13.318;2024-02-21T02:54:51;10.20;;;2.87;;
22184;SDS011;11258;52.516;13.318;2024-02-21T02:57:20;7.03;;;2.60;;
22184;SDS011;11258;52.516;13.318;2024-02-21T02:59:49;12.47;;;3.80;;
22184;SDS011;11258;52.516;13.318;2024-02-21T03:02:16;10.87;;;3.43;;
22184;SDS011;11258;52.516;13.318;2024-02-21T03:04:42;11.17;;;4.23;;
22184;SDS011;11258;52.516;13.318;2024-02-21T03:07:08;12.90;;;4.27;;
22184;SDS011;11258;52.516;13.318;2024-02-21T03:09:36;13.23;;;4.00;;
22184;SDS011;11258;52.516;13.318;2024-02-21T03:12:02;7.57;;;3.40;;
22184;SDS011;11258;52.516;13.318;2024-02-21T03:14:29;15.70;;;3.50;;
22184;SDS011;11258;52.516;13.318;2024-02-21T03:16:55;10.83;;;3.80;;
22184;SDS011;11258;52.516;13.318;2024-02-21T03:19:21;7.60;;;3.80;;
22184;SDS011;11258;52.516;13.318;2024-02-21T03:21:47;5.80;;;3.13;;
22184;SDS011;11258;52.516;13.318;2024-02-21T03:24:14;10.47;;;3.50;;
22184;SDS011;11258;52.516;13.318;2024-02-21T03:26:40;8.03;;;3.73;;
22184;SDS011;11258;52.516;13.318;2024-02-21T03:29:06;8.63;;;3.53;;
22184;SDS011;11258;52.516;13.318;2024-02-21T03:31:33;12.33;;;4.27;;
22184;SDS011;11258;52.516;13.318;2024-02-21T03:34:00;12.10;;;4.23;;
22184;SDS011;11258;52.516;13.318;2024-02-21T03:36:26;12.20;;;3.80;;
22184;SDS011;11258;52.516;13.318;2024-02-21T03:38:53;6.80;;;3.57;;
22184;SDS011;11258;52.516;13.318;2024-02-21T03:41:20;7.00;;;3.67;;
22184;SDS011;11258;52.516;13.318;2024-02-21T03:43:46;9.63;;;3.90;;
22184;SDS011;11258;52.516;13.318;2024-02-21T03:46:12;7.67;;;3.47;;
22184;SDS011;11258;52.516;13.318;2024-02-21T03:48:38;10.67;;;3.60;;
22184;SDS011;11258;52.516;13.318;2024-02-21T03:51:04;9.47;;;3.70;;
22184;SDS011;11258;52.516;13.318;2024-02-21T03:53:30;16.00;;;4.00;;
22184;SDS011;11258;52.516;13.318;2024-02-21T03:55:56;8.63;;;3.30;;
22184;SDS011;11258;52.516;13.318;2024-02-21T03:58:27;7.63;;;4.37;;
22184;SDS011;11258;52.516;13.318;2024-02-21T04:00:53;10.10;;;4.53;;
22184;SDS011;11258;52.516;13.318;2024-02-21T04:03:19;8.53;;;4.13;;
22184;SDS011;11258;52.516;13.318;2024-02-21T04:05:45;8.93;;;4.30;;
22184;SDS011;11258;52.516;13.318;2024-02-21T04:08:11;10.07;;;4.10;;
22184;SDS011;11258;52.516;13.318;2024-02-21T04:10:37;13.90;;;4.10;;
22184;SDS011;11258;52.516;13.318;2024-02-21T04:13:04;9.13;;;3.47;;
22184;SDS011;11258;52.516;13.318;2024-02-21T04:15:30;13.77;;;4.67;;
22184;SDS011;11258;52.516;13.318;2024-02-21T04:17:57;9.67;;;3.93;;
22184;SDS011;11258;52.516;13.318;2024-02-21T04:20:23;15.53;;;4.47;;
22184;SDS011;11258;52.516;13.318;2024-02-21T04:22:49;12.33;;;4.33;;
22184;SDS011;11258;52.516;13.318;2024-02-21T04:25:15;11.73;;;4.57;;
22184;SDS011;11258;52.516;13.318;2024-02-21T04:27:41;8.20;;;3.77;;
22184;SDS011;11258;52.516;13.318;2024-02-21T04:30:07;11.13;;;4.27;;
22184;SDS011;11258;52.516;13.318;2024-02-21T04:32:34;11.23;;;4.60;;
22184;SDS011;11258;52.516;13.318;2024-02-21T04:35:00;11.13;;;4.43;;
22184;SDS011;11258;52.516;13.318;2024-02-21T04:37:26;13.67;;;3.90;;
22184;SDS011;11258;52.516;13.318;2024-02-21T04:39:52;10.77;;;4.20;;
22184;SDS011;11258;52.516;13.318;2024-02-21T04:42:18;8.10;;;3.67;;
22184;SDS011;11258;52.516;13.318;2024-02-21T04:44:44;10.70;;;4.30;;
22184;SDS011;11258;52.516;13.318;2024-02-21T04:47:11;13.73;;;4.67;;
22184;SDS011;11258;52.516;13.318;2024-02-21T04:49:38;7.03;;;3.63;;
22184;SDS011;11258;52.516;13.318;2024-02-21T04:52:04;14.87;;;4.60;;
22184;SDS011;11258;52.516;13.318;2024-02-21T04:54:30;14.97;;;4.77;;
22184;SDS011;11258;52.516;13.318;2024-02-21T04:56:56;11.23;;;4.40;;
22184;SDS011;11258;52.516;13.318;2024-02-21T04:59:22;15.00;;;4.93;;
22184;SDS011;11258;52.516;13.318;2024-02-21T05:01:48;13.40;;;5.25;;
22184;SDS011;11258;52.516;13.318;2024-02-21T05:04:14;11.03;;;4.70;;
22184;SDS011;11258;52.516;13.318;2024-02-21T05:06:40;10.30;;;3.93;;
22184;SDS011;11258;52.516;13.318;2024-02-21T05:09:07;11.73;;;4.00;;
22184;SDS011;11258;52.516;13.318;2024-02-21T05:11:36;10.07;;;4.57;;
22184;SDS011;11258;52.516;13.318;2024-02-21T05:14:03;9.23;;;4.00;;
22184;SDS011;11258;52.516;13.318;2024-02-21T05:16:29;15.30;;;4.33;;
22184;SDS011;11258;52.516;13.318;2024-02-21T05:18:55;7.63;;;3.93;;
22184;SDS011;11258;52.516;13.318;2024-02-21T05:21:24;13.57;;;5.03;;
22184;SDS011;11258;52.516;13.318;2024-02-21T05:23:51;10.10;;;4.57;;
22184;SDS011;11258;52.516;13.318;2024-02-21T05:26:23;14.07;;;5.13;;
22184;SDS011;11258;52.516;13.318;2024-02-21T05:28:49;10.67;;;4.17;;
22184;SDS011;11258;52.516;13.318;2024-02-21T05:31:19;13.30;;;4.53;;
22184;SDS011;11258;52.516;13.318;2024-02-21T05:33:45;16.43;;;4.63;;
22184;SDS011;11258;52.516;13.318;2024-02-21T05:36:11;9.93;;;4.00;;
22184;SDS011;11258;52.516;13.318;2024-02-21T05:38:38;10.83;;;4.63;;
22184;SDS011;11258;52.516;13.318;2024-02-21T05:41:04;11.80;;;4.43;;
22184;SDS011;11258;52.516;13.318;2024-02-21T05:43:30;14.37;;;4.87;;
22184;SDS011;11258;52.516;13.318;2024-02-21T05:45:56;9.60;;;4.07;;
22184;SDS011;11258;52.516;13.318;2024-02-21T05:48:22;9.93;;;4.90;;
22184;SDS011;11258;52.516;13.318;2024-02-21T05:50:49;11.53;;;4.60;;
22184;SDS011;11258;52.516;13.318;2024-02-21T05:53:15;12.10;;;4.50;;
22184;SDS011;11258;52.516;13.318;2024-02-21T05:55:41;12.63;;;4.90;;
22184;SDS011;11258;52.516;13.318;2024-02-21T05:58:07;12.50;;;4.67;;
22184;SDS011;11258;52.516;13.318;2024-02-21T06:00:36;14.90;;;4.80;;
22184;SDS011;11258;52.516;13.318;2024-02-21T06:03:02;13.50;;;4.83;;
22184;SDS011;11258;52.516;13.318;2024-02-21T06:05:28;9.97;;;5.37;;
22184;SDS011;11258;52.516;13.318;2024-02-21T06:07:56;9.23;;;4.60;;
22184;SDS011;11258;52.516;13.318;2024-02-21T06:10:22;11.77;;;5.47;;
22184;SDS011;11258;52.516;13.318;2024-02-21T06:12:48;10.37;;;4.43;;
22184;SDS011;11258;52.516;13.318;2024-02-21T06:15:14;17.60;;;5.70;;
22184;SDS011;11258;52.516;13.318;2024-02-21T06:17:40;13.73;;;5.20;;
22184;SDS011;11258;52.516;13.318;2024-02-21T06:20:06;14.47;;;5.60;;
22184;SDS011;11258;52.516;13.318;2024-02-21T06:22:32;13.60;;;4.77;;
22184;SDS011;11258;52.516;13.318;2024-02-21T06:24:58;15.77;;;5.37;;
22184;SDS011;11258;52.516;13.318;2024-02-21T06:27:24;11.10;;;5.23;;
22184;SDS011;11258;52.516;13.318;2024-02-21T06:29:50;14.93;;;5.20;;
22184;SDS011;11258;52.516;13.318;2024-02-21T06:32:16;12.47;;;5.43;;
22184;SDS011;11258;52.516;13.318;2024-02-21T06:34:42;16.17;;;5.10;;
22184;SDS011;11258;52.516;13.318;2024-02-21T06:37:08;18.40;;;5.77;;
22184;SDS011;11258;52.516;13.318;2024-02-21T06:39:34;10.10;;;4.97;;
22184;SDS011;11258;52.516;13.318;2024-02-21T06:42:02;12.00;;;5.00;;
22184;SDS011;11258;52.516;13.318;2024-02-21T06:44:29;15.47;;;5.00;;
22184;SDS011;11258;52.516;13.318;2024-02-21T06:46:56;13.07;;;5.00;;
22184;SDS011;11258;52.516;13.318;2024-02-21T06:49:24;13.77;;;4.90;;
22184;SDS011;11258;52.516;13.318;2024-02-21T06:51:50;9.70;;;5.00;;
22184;SDS011;11258;52.516;13.318;2024-02-21T06:54:16;12.90;;;5.27;;
22184;SDS011;11258;52.516;13.318;2024-02-21T06:56:42;13.93;;;5.17;;
22184;SDS011;11258;52.516;13.318;2024-02-21T06:59:08;12.23;;;5.83;;
22184;SDS011;11258;52.516;13.318;2024-02-21T07:01:34;13.53;;;6.30;;
22184;SDS011;11258;52.516;13.318;2024-02-21T07:04:00;9.83;;;5.13;;
22184;SDS011;11258;52.516;13.318;2024-02-21T07:06:26;12.63;;;5.97;;
22184;SDS011;11258;52.516;13.318;2024-02-21T07:08:52;14.83;;;6.23;;
22184;SDS011;11258;52.516;13.318;2024-02-21T07:11:18;11.23;;;5.23;;
22184;SDS011;11258;52.516;13.318;2024-02-21T07:13:44;13.83;;;5.23;;
22184;SDS011;11258;52.516;13.318;2024-02-21T07:16:10;11.23;;;5.20;;
22184;SDS011;11258;52.516;13.318;2024-02-21T07:18:36;11.63;;;5.67;;
22184;SDS011;11258;52.516;13.318;2024-02-21T07:21:02;11.17;;;5.10;;
22184;SDS011;11258;52.516;13.318;2024-02-21T07:23:28;10.90;;;5.07;;
22184;SDS011;11258;52.516;13.318;2024-02-21T07:25:54;9.50;;;5.57;;
22184;SDS011;11258;52.516;13.318;2024-02-21T07:28:20;15.93;;;5.90;;
22184;SDS011;11258;52.516;13.318;2024-02-21T07:30:46;15.00;;;5.53;;
22184;SDS011;11258;52.516;13.318;2024-02-21T07:33:12;11.87;;;5.47;;
22184;SDS011;11258;52.516;13.318;2024-02-21T07:35:39;11.17;;;5.33;;
22184;SDS011;11258;52.516;13.318;2024-02-21T07:38:07;13.27;;;6.13;;
22184;SDS011;11258;52.516;13.318;2024-02-21T07:40:37;9.93;;;4.83;;
22184;SDS011;11258;52.516;13.318;2024-02-21T07:43:03;11.83;;;5.43;;
22184;SDS011;11258;52.516;13.318;2024-02-21T07:45:29;8.77;;;4.67;;
22184;SDS011;11258;52.516;13.318;2024-02-21T07:47:55;12.90;;;5.27;;
22184;SDS011;11258;52.516;13.318;2024-02-21T07:50:21;11.83;;;4.63;;
22184;SDS011;11258;52.516;13.318;2024-02-21T07:52:47;13.40;;;6.43;;
22184;SDS011;11258;52.516;13.318;2024-02-21T07:55:13;9.23;;;4.77;;
22184;SDS011;11258;52.516;13.318;2024-02-21T07:57:39;14.47;;;5.70;;
22184;SDS011;11258;52.516;13.318;2024-02-21T08:00:05;10.23;;;4.87;;
22184;SDS011;11258;52.516;13.318;2024-02-21T08:02:34;10.70;;;5.07;;
22184;SDS011;11258;52.516;13.318;2024-02-21T08:05:01;15.57;;;6.53;;
22184;SDS011;11258;52.516;13.318;2024-02-21T08:07:28;16.83;;;5.07;;
22184;SDS011;11258;52.516;13.318;2024-02-21T08:09:56;12.37;;;5.40;;
22184;SDS011;11258;52.516;13.318;2024-02-21T08:12:22;12.57;;;4.77;;
22184;SDS011;11258;52.516;13.318;2024-02-21T08:14:48;7.47;;;4.33;;
22184;SDS011;11258;52.516;13.318;2024-02-21T08:17:14;15.30;;;5.40;;
22184;SDS011;11258;52.516;13.318;2024-02-21T08:19:40;12.67;;;4.77;;
22184;SDS011;11258;52.516;13.318;2024-02-21T08:22:06;13.23;;;4.67;;
22184;SDS011;11258;52.516;13.318;2024-02-21T08:24:32;9.53;;;5.10;;
22184;SDS011;11258;52.516;13.318;2024-02-21T08:26:58;11.17;;;5.23;;
22184;SDS011;11258;52.516;13.318;2024-02-21T08:29:24;10.30;;;5.23;;
22184;SDS011;11258;52.516;13.318;2024-02-21T08:31:50;11.63;;;4.70;;
22184;SDS011;11258;52.516;13.318;2024-02-21T08:34:16;18.03;;;6.67;;
22184;SDS011;11258;52.516;13.318;2024-02-21T08:36:43;15.50;;;5.33;;
22184;SDS011;11258;52.516;13.318;2024-02-21T08:39:09;11.73;;;5.50;;
22184;SDS011;11258;52.516;13.318;2024-02-21T08:41:36;12.63;;;5.60;;
22184;SDS011;11258;52.516;13.318;2024-02-21T08:44:02;11.57;;;4.80;;
22184;SDS011;11258;52.516;13.318;2024-02-21T08:46:28;13.53;;;5.33;;
22184;SDS011;11258;52.516;13.318;2024-02-21T08:48:54;15.33;;;5.40;;
22184;SDS011;11258;52.516;13.318;2024-02-21T08:51:20;10.63;;;5.33;;
22184;SDS011;11258;52.516;13.318;2024-02-21T08:53:46;13.17;;;5.70;;
22184;SDS011;11258;52.516;13.318;2024-02-21T08:56:12;11.17;;;5.30;;
22184;SDS011;11258;52.516;13.318;2024-02-21T08:58:41;10.00;;;5.70;;
22184;SDS011;11258;52.516;13.318;2024-02-21T09:01:07;17.67;;;6.17;;
22184;SDS011;11258;52.516;13.318;2024-02-21T09:03:37;12.03;;;5.40;;
22184;SDS011;11258;52.516;13.318;2024-02-21T09:06:06;13.57;;;5.63;;
22184;SDS011;11258;52.516;13.318;2024-02-21T09:08:32;12.90;;;6.43;;
22184;SDS011;11258;52.516;13.318;2024-02-21T09:10:59;12.27;;;5.37;;
22184;SDS011;11258;52.516;13.318;2024-02-21T09:13:28;12.30;;;6.13;;
22184;SDS011;11258;52.516;13.318;2024-02-21T09:15:55;14.90;;;5.97;;
22184;SDS011;11258;52.516;13.318;2024-02-21T09:18:21;10.33;;;5.57;;
22184;SDS011;11258;52.516;13.318;2024-02-21T09:20:47;17.13;;;6.27;;
22184;SDS011;11258;52.516;13.318;2024-02-21T09:23:13;21.20;;;6.80;;
22184;SDS011;11258;52.516;13.318;2024-02-21T09:25:39;12.90;;;6.00;;
22184;SDS011;11258;52.516;13.318;2024-02-21T09:28:05;12.10;;;5.73;;
22184;SDS011;11258;52.516;13.318;2024-02-21T09:30:31;14.63;;;6.60;;
22184;SDS011;11258;52.516;13.318;2024-02-21T09:32:58;14.60;;;6.03;;
22184;SDS011;11258;52.516;13.318;2024-02-21T09:35:26;10.00;;;5.33;;
22184;SDS011;11258;52.516;13.318;2024-02-21T09:37:55;15.90;;;6.87;;
22184;SDS011;11258;52.516;13.318;2024-02-21T09:40:24;19.47;;;6.50;;
22184;SDS011;11258;52.516;13.318;2024-02-21T09:42:53;11.50;;;5.90;;
22184;SDS011;11258;52.516;13.318;2024-02-21T09:45:23;17.53;;;6.77;;
22184;SDS011;11258;52.516;13.318;2024-02-21T09:50:34;11.73;;;6.13;;
22184;SDS011;11258;52.516;13.318;2024-02-21T09:53:01;13.93;;;5.90;;
22184;SDS011;11258;52.516;13.318;2024-02-21T09:55:29;10.63;;;6.07;;
22184;SDS011;11258;52.516;13.318;2024-02-21T09:57:57;14.30;;;7.57;;
22184;SDS011;11258;52.516;13.318;2024-02-21T10:00:23;13.40;;;6.33;;
22184;SDS011;11258;52.516;13.318;2024-02-21T10:02:49;14.40;;;6.10;;
22184;SDS011;11258;52.516;13.318;2024-02-21T10:05:16;13.63;;;6.20;;
22184;SDS011;11258;52.516;13.318;2024-02-21T10:07:43;11.37;;;5.73;;
22184;SDS011;11258;52.516;13.318;2024-02-21T10:10:09;12.77;;;5.93;;
22184;SDS011;11258;52.516;13.318;2024-02-21T10:12:35;15.33;;;5.57;;
22184;SDS011;11258;52.516;13.318;2024-02-21T10:15:05;13.13;;;5.83;;
22184;SDS011;11258;52.516;13.318;2024-02-21T10:17:34;13.03;;;6.53;;
22184;SDS011;11258;52.516;13.318;2024-02-21T10:20:08;11.93;;;5.87;;
22184;SDS011;11258;52.516;13.318;2024-02-21T10:22:34;12.70;;;6.73;;
22184;SDS011;11258;52.516;13.318;2024-02-21T10:25:34;11.57;;;5.73;;
22184;SDS011;11258;52.516;13.318;2024-02-21T10:27:54;10.63;;;5.67;;
22184;SDS011;11258;52.516;13.318;2024-02-21T10:30:20;13.47;;;5.53;;
22184;SDS011;11258;52.516;13.318;2024-02-21T10:32:49;10.33;;;5.27;;
22184;SDS011;11258;52.516;13.318;2024-02-21T10:35:25;9.67;;;5.40;;
22184;SDS011;11258;52.516;13.318;2024-02-21T10:37:52;13.53;;;5.80;;
22184;SDS011;11258;52.516;13.318;2024-02-21T10:40:22;11.27;;;6.27;;
22184;SDS011;11258;52.516;13.318;2024-02-21T10:42:48;10.93;;;5.57;;
22184;SDS011;11258;52.516;13.318;2024-02-21T10:45:16;14.37;;;5.57;;
22184;SDS011;11258;52.516;13.318;2024-02-21T10:47:42;9.80;;;5.43;;
22184;SDS011;11258;52.516;13.318;2024-02-21T10:50:10;10.97;;;5.93;;
22184;SDS011;11258;52.516;13.318;2024-02-21T10:55:04;11.57;;;5.17;;
22184;SDS011;11258;52.516;13.318;2024-02-21T10:57:31;11.50;;;5.43;;
22184;SDS011;11258;52.516;13.318;2024-02-21T10:59:58;12.30;;;5.23;;
22184;SDS011;11258;52.516;13.318;2024-02-21T11:02:25;9.60;;;5.13;;
22184;SDS011;11258;52.516;13.318;2024-02-21T11:04:53;13.33;;;5.70;;
22184;SDS011;11258;52.516;13.318;2024-02-21T11:07:20;10.17;;;5.20;;
22184;SDS011;11258;52.516;13.318;2024-02-21T11:09:53;9.37;;;4.87;;
22184;SDS011;11258;52.516;13.318;2024-02-21T11:12:22;8.40;;;5.40;;
22184;SDS011;11258;52.516;13.318;2024-02-21T11:14:48;11.57;;;5.67;;
22184;SDS011;11258;52.516;13.318;2024-02-21T11:17:17;10.97;;;5.93;;
22184;SDS011;11258;52.516;13.318;2024-02-21T11:19:44;8.17;;;5.03;;
22184;SDS011;11258;52.516;13.318;2024-02-21T11:22:17;9.97;;;4.93;;
22184;SDS011;11258;52.516;13.318;2024-02-21T11:24:43;10.07;;;4.90;;
22184;SDS011;11258;52.516;13.318;2024-02-21T11:29:48;11.70;;;4.93;;
22184;SDS011;11258;52.516;13.318;2024-02-21T11:32:16;13.20;;;4.73;;
22184;SDS011;11258;52.516;13.318;2024-02-21T11:35:02;6.65;;;4.22;;
22184;SDS011;11258;52.516;13.318;2024-02-21T11:37:30;9.50;;;4.53;;
22184;SDS011;11258;52.516;13.318;2024-02-21T11:39:58;7.20;;;4.17;;
22184;SDS011;11258;52.516;13.318;2024-02-21T11:42:25;7.67;;;4.43;;
22184;SDS011;11258;52.516;13.318;2024-02-21T11:44:51;12.38;;;4.90;;
22184;SDS011;11258;52.516;13.318;2024-02-21T11:47:17;8.52;;;4.57;;
22184;SDS011;11258;52.516;13.318;2024-02-21T11:49:44;9.20;;;4.43;;
22184;SDS011;11258;52.516;13.318;2024-02-21T11:52:11;8.07;;;4.22;;
22184;SDS011;11258;52.516;13.318;2024-02-21T11:54:40;5.13;;;3.50;;
22184;SDS011;11258;52.516;13.318;2024-02-21T11:57:06;6.87;;;3.40;;
22184;SDS011;11258;52.516;13.318;2024-02-21T11:59:32;9.30;;;4.53;;
22184;SDS011;11258;52.516;13.318;2024-02-21T12:01:59;5.33;;;3.47;;
22184;SDS011;11258;52.516;13.318;2024-02-21T12:04:25;8.23;;;4.37;;
22184;SDS011;11258;52.516;13.318;2024-02-21T12:06:54;8.47;;;4.23;;
22184;SDS011;11258;52.516;13.318;2024-02-21T12:09:22;7.67;;;3.50;;
22184;SDS011;11258;52.516;13.318;2024-02-21T12:11:56;5.73;;;3.40;;
22184;SDS011;11258;52.516;13.318;2024-02-21T12:14:22;10.33;;;4.13;;
22184;SDS011;11258;52.516;13.318;2024-02-21T12:16:50;7.53;;;3.33;;
22184;SDS011;11258;52.516;13.318;2024-02-21T12:19:16;11.17;;;3.97;;
22184;SDS011;11258;52.516;13.318;2024-02-21T12:21:42;4.53;;;2.90;;
22184;SDS011;11258;52.516;13.318;2024-02-21T12:24:17;6.75;;;3.85;;
22184;SDS011;11258;52.516;13.318;2024-02-21T12:26:45;8.85;;;3.78;;
22184;SDS011;11258;52.516;13.318;2024-02-21T12:29:11;6.38;;;4.03;;
22184;SDS011;11258;52.516;13.318;2024-02-21T12:31:37;7.20;;;4.22;;
22184;SDS011;11258;52.516;13.318;2024-02-21T12:34:04;7.18;;;3.70;;
22184;SDS011;11258;52.516;13.318;2024-02-21T12:36:33;6.03;;;3.03;;
22184;SDS011;11258;52.516;13.318;2024-02-21T12:38:59;5.35;;;3.03;;
22184;SDS011;11258;52.516;13.318;2024-02-21T12:41:27;6.18;;;3.00;;
22184;SDS011;11258;52.516;13.318;2024-02-21T12:43:54;7.80;;;2.70;;
22184;SDS011;11258;52.516;13.318;2024-02-21T12:46:21;7.13;;;3.13;;
22184;SDS011;11258;52.516;13.318;2024-02-21T12:48:47;10.97;;;2.90;;
22184;SDS011;11258;52.516;13.318;2024-02-21T12:51:14;10.43;;;3.05;;
22184;SDS011;11258;52.516;13.318;2024-02-21T12:53:40;8.48;;;3.28;;
22184;SDS011;11258;52.516;13.318;2024-02-21T12:56:06;6.63;;;2.95;;
22184;SDS011;11258;52.516;13.318;2024-02-21T12:58:33;5.32;;;2.78;;
22184;SDS011;11258;52.516;13.318;2024-02-21T13:00:59;4.32;;;2.90;;
22184;SDS011;11258;52.516;13.318;2024-02-21T13:03:25;7.73;;;3.17;;
22184;SDS011;11258;52.516;13.318;2024-02-21T13:05:51;6.00;;;3.00;;
22184;SDS011;11258;52.516;13.318;2024-02-21T13:08:17;4.68;;;2.38;;
22184;SDS011;11258;52.516;13.318;2024-02-21T13:10:46;8.18;;;3.33;;
22184;SDS011;11258;52.516;13.318;2024-02-21T13:13:14;5.53;;;3.17;;
22184;SDS011;11258;52.516;13.318;2024-02-21T13:15:40;7.10;;;3.70;;
22184;SDS011;11258;52.516;13.318;2024-02-21T13:18:08;9.05;;;2.88;;
22184;SDS011;11258;52.516;13.318;2024-02-21T13:20:34;7.35;;;2.67;;
22184;SDS011;11258;52.516;13.318;2024-02-21T13:23:00;4.68;;;2.78;;
22184;SDS011;11258;52.516;13.318;2024-02-21T13:25:26;8.30;;;2.92;;
22184;SDS011;11258;52.516;13.318;2024-02-21T13:27:51;7.50;;;3.05;;
22184;SDS011;11258;52.516;13.318;2024-02-21T13:30:18;6.00;;;2.67;;
22184;SDS011;11258;52.516;13.318;2024-02-21T13:32:44;10.25;;;3.47;;
22184;SDS011;11258;52.516;13.318;2024-02-21T13:35:13;6.70;;;2.83;;
22184;SDS011;11258;52.516;13.318;2024-02-21T13:37:39;5.38;;;2.70;;
22184;SDS011;11258;52.516;13.318;2024-02-21T13:40:06;8.30;;;2.83;;
22184;SDS011;11258;52.516;13.318;2024-02-21T13:42:34;8.05;;;3.30;;
22184;SDS011;11258;52.516;13.318;2024-02-21T13:45:00;7.53;;;3.42;;
22184;SDS011;11258;52.516;13.318;2024-02-21T13:47:26;5.65;;;2.70;;
22184;SDS011;11258;52.516;13.318;2024-02-21T13:49:53;8.30;;;2.92;;
22184;SDS011;11258;52.516;13.318;2024-02-21T13:52:19;4.57;;;3.17;;
22184;SDS011;11258;52.516;13.318;2024-02-21T13:54:46;7.80;;;3.05;;
22184;SDS011;11258;52.516;13.318;2024-02-21T13:57:12;8.27;;;3.50;;
22184;SDS011;11258;52.516;13.318;2024-02-21T13:59:39;6.28;;;2.92;;
22184;SDS011;11258;52.516;13.318;2024-02-21T14:02:05;4.60;;;2.93;;
22184;SDS011;11258;52.516;13.318;2024-02-21T14:04:33;4.90;;;2.07;;
22184;SDS011;11258;52.516;13.318;2024-02-21T14:06:59;9.18;;;3.47;;
22184;SDS011;11258;52.516;13.318;2024-02-21T14:09:25;3.88;;;2.40;;
22184;SDS011;11258;52.516;13.318;2024-02-21T14:11:51;4.47;;;2.47;;
22184;SDS011;11258;52.516;13.318;2024-02-21T14:14:18;5.72;;;2.85;;
22184;SDS011;11258;52.516;13.318;2024-02-21T14:16:44;3.60;;;2.83;;
22184;SDS011;11258;52.516;13.318;2024-02-21T14:19:12;9.88;;;3.10;;
22184;SDS011;11258;52.516;13.318;2024-02-21T14:21:38;6.38;;;2.45;;
22184;SDS011;11258;52.516;13.318;2024-02-21T14:24:05;7.47;;;2.92;;
22184;SDS011;11258;52.516;13.318;2024-02-21T14:26:31;8.50;;;2.53;;
22184;SDS011;11258;52.516;13.318;2024-02-21T14:28:57;4.05;;;2.20;;
22184;SDS011;11258;52.516;13.318;2024-02-21T14:31:23;6.40;;;2.88;;